Anderson, California
Current Conditions -  °F | °C
As of 4:53 AM on Wednesday 26 Nov 2014 (Local Time) from KRDD Reporting Station
Clear Clear  
Wind Chill: 39°   Ceiling: Unl
Heat Index: 39°   Visibility: 10mi
Dew Point: 38°   Wind: 0mph
Humidity: 96%   Direction: NA
Pressure: 30.33"   Gusts: NA
Location:  40.45°N, 122.3°W
Report Text: KRDD 261253Z AUTO 00000KT 10SM CLR 04/03 A3033 RMK AO2 SLP269 T00390033
Loading
Personal Weather Stations






























Interactive Weather Map New forecast layout! Learn more

10-Day Weather Forecast

Advertisements
Track Severe Weather on mobile